Aérodrome :
LOGIN :

S'inscrire | Disclaimer

   EN    FR    IT 

 










Légende :    VFR   VFR Marginal   IFR   IFR Intensif   IFR Très Intensif
Visi : 
Plafond : 
>= 8 km
>= 3000ft
5 à 8 km
1000 à 3000 ft
1500m à 5 km
500 à 1000 ft
800 à 1500m
200 à 500 ft
< 800m
< 200 ft
Symboles :   Orages  Brouillard  Fortes neiges  Fortes précipitations  Vent > 20 kt
SIGMETs :   Divers  Orages  Givrage  Turbulence  Onde Orograph.  Cendres Volcan.






- Altitude de l'aérodrome : 53 ft
- Code IATA : LBC


EDHL - Lübeck

DERNIER METAR :
  • 241450Z 23007KT 3100 BR OVC003 02/02 Q1020

METARs EXPIRÉS :
  • 241420Z 23008KT 2900 BR OVC004 02/02 Q1020
  • 241350Z 23008KT 2600 BR OVC003 02/02 Q1020
  • 241320Z 23008KT 2800 BR OVC003 03/02 Q1020
  • 241250Z 23008KT 2800 BR OVC003 03/02 Q1020
  • 241220Z 23007KT 2300 BR OVC003 03/02 Q1020

TAF TAF EDHL
Valide du 24 à 15h jusqu'au 24 à 21h UTC


241400Z 2415/2421 24007KT 2500 BR OVC003
TEMPO 2415/2421 3500 -DZ OVC005



MET'MAP, la Météo Aéronautique d'un coup d'oeil ! - Copyright ORBIFLY Décembre 2007 - Disclaimer

ORBIFLY MET'MAP TEAM :

Programmation & Développement : Alexandra Zaïnal
Sur une idée originale de : Baudouin d'Aumeries
Assistance à la programmation : Marc-Olivier Méhu
Soutien technique & logistique : Manuel Goepfert

Contact : metmap@orbifly.com




SOURCES & CREDITS :

   NOAA